Time;durP1;ratioP1;P1;durP2;ratioP2;P2;SDS_P1;SDS_P2;PMS_P1;PMS_P2;Temp;Humidity;BMP_temperature;BMP_pressure;BME280_temperature;BME280_humidity;BME280_pressure;Samples;Min_cycle;Max_cycle;Signal;HPM_P1;HPM_P2
2022/05/23 00:01:29;;;;;;;6.30;3.15;;;9.40;99.90;;;;;;4897617;29;20048;-76
2022/05/23 00:03:56;;;;;;;3.58;3.08;;;9.30;99.90;;;;;;4898109;29;20062;-75
2022/05/23 00:06:23;;;;;;;4.50;3.17;;;9.20;99.90;;;;;;4905474;29;20048;-75
2022/05/23 00:08:51;;;;;;;6.72;3.25;;;9.10;99.90;;;;;;4912743;29;20048;-76
2022/05/23 00:11:21;;;;;;;5.95;3.15;;;9.00;99.90;;;;;;4909221;29;20052;-76
2022/05/23 00:13:49;;;;;;;4.45;2.60;;;8.90;99.90;;;;;;4898081;29;20147;-76
2022/05/23 00:16:20;;;;;;;5.47;3.20;;;8.80;99.90;;;;;;4901458;29;20053;-76
2022/05/23 00:18:47;;;;;;;3.50;2.65;;;8.70;99.90;;;;;;4913683;29;20088;-76
2022/05/23 00:21:15;;;;;;;4.30;2.72;;;8.70;99.90;;;;;;4913640;29;20135;-76
2022/05/23 00:23:44;;;;;;;5.68;3.10;;;8.60;99.90;;;;;;4912064;29;20044;-77
2022/05/23 00:26:13;;;;;;;4.63;3.13;;;8.60;99.90;;;;;;4914846;29;20060;-76
2022/05/23 00:28:41;;;;;;;6.40;2.97;;;8.50;99.90;;;;;;4914026;29;20087;-76
2022/05/23 00:31:10;;;;;;;4.18;3.05;;;8.50;99.90;;;;;;4914062;29;20091;-75
2022/05/23 00:36:25;;;;;;;7.78;3.58;;;8.50;99.90;;;;;;4914815;29;20056;-75
2022/05/23 00:38:54;;;;;;;4.55;3.13;;;8.40;99.90;;;;;;4914875;29;20060;-80
2022/05/23 00:44:19;;;;;;;3.28;2.95;;;8.30;99.90;;;;;;4885432;29;20081;-81
2022/05/23 00:46:51;;;;;;;6.60;2.97;;;8.30;99.90;;;;;;4897928;29;20067;-80
2022/05/23 00:49:21;;;;;;;7.63;2.97;;;8.20;99.90;;;;;;4904714;29;20522;-80
2022/05/23 00:51:49;;;;;;;4.50;2.83;;;8.20;99.90;;;;;;4909552;29;20324;-79
2022/05/23 00:54:16;;;;;;;7.00;3.28;;;8.30;99.90;;;;;;4902111;29;20053;-80
2022/05/23 00:56:46;;;;;;;4.50;3.25;;;8.30;99.90;;;;;;4896515;29;20059;-79
2022/05/23 00:59:19;;;;;;;4.70;2.60;;;8.30;99.90;;;;;;4911768;29;20049;-80
2022/05/23 01:01:46;;;;;;;8.63;2.92;;;8.30;99.90;;;;;;4900052;29;20059;-80
2022/05/23 01:04:14;;;;;;;4.55;2.90;;;8.20;99.90;;;;;;4915055;29;20503;-83
2022/05/23 01:06:41;;;;;;;4.43;2.67;;;8.20;99.90;;;;;;4898189;29;20094;-83
2022/05/23 01:09:08;;;;;;;5.32;2.58;;;8.10;99.90;;;;;;4915185;29;20060;-82
2022/05/23 01:11:36;;;;;;;5.75;2.85;;;8.10;99.90;;;;;;4902934;29;20076;-76
2022/05/23 01:14:05;;;;;;;4.43;2.70;;;8.10;99.90;;;;;;4897460;29;20441;-76
2022/05/23 01:16:34;;;;;;;6.38;3.20;;;8.10;99.90;;;;;;4897962;29;20579;-76
2022/05/23 01:19:03;;;;;;;4.35;2.78;;;8.00;99.90;;;;;;4913916;29;20051;-76
2022/05/23 01:21:42;;;;;;;6.05;2.40;;;8.00;99.90;;;;;;4900309;29;20131;-76
2022/05/23 01:24:20;;;;;;;8.02;3.20;;;8.00;99.90;;;;;;4883098;29;20059;-76
2022/05/23 01:26:56;;;;;;;4.78;2.80;;;8.00;99.90;;;;;;4879717;29;20052;-76
2022/05/23 01:29:33;;;;;;;3.95;3.00;;;7.90;99.90;;;;;;4901232;29;20044;-76
2022/05/23 01:32:09;;;;;;;3.28;2.90;;;7.90;99.90;;;;;;4908931;29;20141;-76
2022/05/23 01:34:38;;;;;;;5.32;3.45;;;7.90;99.90;;;;;;4912913;29;20076;-76
2022/05/23 01:37:11;;;;;;;6.03;2.97;;;7.90;99.90;;;;;;4887199;29;20143;-76
2022/05/23 01:39:56;;;;;;;4.20;2.80;;;7.90;99.90;;;;;;4883928;29;20053;-77
2022/05/23 01:42:43;;;;;;;5.80;2.92;;;7.90;99.90;;;;;;4914646;29;20117;-77
2022/05/23 01:45:15;;;;;;;4.90;2.80;;;7.90;99.90;;;;;;4903131;29;20422;-77
2022/05/23 01:47:43;;;;;;;6.05;3.50;;;7.90;99.90;;;;;;4895704;29;20044;-76
2022/05/23 01:50:11;;;;;;;5.32;2.80;;;7.90;99.90;;;;;;4894879;29;20056;-76
2022/05/23 01:52:41;;;;;;;12.18;3.13;;;7.90;99.90;;;;;;4913668;29;20059;-76
2022/05/23 01:55:19;;;;;;;5.40;2.92;;;7.90;99.90;;;;;;4879728;29;20429;-76
2022/05/23 01:58:14;;;;;;;4.25;2.78;;;7.80;99.90;;;;;;4904658;29;20070;-76
2022/05/23 02:03:37;;;;;;;4.00;2.70;;;7.90;99.90;;;;;;4886934;29;20044;-76
2022/05/23 02:06:04;;;;;;;3.95;2.63;;;7.90;99.90;;;;;;4895906;29;20052;-76
2022/05/23 02:08:31;;;;;;;5.47;2.78;;;7.80;99.90;;;;;;4894020;29;20533;-76
2022/05/23 02:10:58;;;;;;;6.90;3.00;;;7.90;99.90;;;;;;4896266;29;20060;-76
2022/05/23 02:13:34;;;;;;;3.10;2.30;;;7.80;99.90;;;;;;4894828;29;20116;-76
2022/05/23 02:16:01;;;;;;;5.05;2.42;;;7.80;99.90;;;;;;4884908;29;20049;-75
2022/05/23 02:18:44;;;;;;;2.72;2.30;;;7.80;99.90;;;;;;4882017;29;20057;-75
2022/05/23 02:21:13;;;;;;;5.00;2.58;;;7.80;99.90;;;;;;4898683;29;20497;-75
2022/05/23 02:23:42;;;;;;;5.22;4.22;;;7.80;99.90;;;;;;4910784;29;20138;-75
2022/05/23 02:26:09;;;;;;;4.20;2.63;;;7.80;99.90;;;;;;4901122;29;20536;-75
2022/05/23 02:28:45;;;;;;;2.88;2.67;;;7.80;99.90;;;;;;4901624;29;20143;-75
2022/05/23 02:31:20;;;;;;;4.55;2.95;;;7.80;99.90;;;;;;4892326;29;20581;-75
2022/05/23 02:34:13;;;;;;;3.10;2.67;;;7.80;99.90;;;;;;4910612;29;20052;-75
2022/05/23 02:36:45;;;;;;;2.85;2.58;;;7.80;99.90;;;;;;4898674;29;20533;-75
2022/05/23 02:39:15;;;;;;;3.97;3.58;;;7.80;99.90;;;;;;4908056;29;20099;-75
2022/05/23 02:41:48;;;;;;;4.82;3.65;;;7.80;99.90;;;;;;4897301;29;20056;-75
2022/05/23 02:44:19;;;;;;;3.83;2.70;;;7.90;99.90;;;;;;4902113;29;20069;-75
2022/05/23 02:46:47;;;;;;;3.05;2.75;;;7.90;99.90;;;;;;4882740;29;20494;-75
2022/05/23 02:49:19;;;;;;;3.05;2.80;;;7.90;99.90;;;;;;4912804;29;20053;-75
2022/05/23 02:51:48;;;;;;;6.10;2.60;;;7.90;99.90;;;;;;4906009;29;20076;-76
2022/05/23 02:54:16;;;;;;;5.75;2.92;;;7.90;99.90;;;;;;4898195;29;20059;-75
2022/05/23 02:56:51;;;;;;;6.13;2.97;;;7.90;99.90;;;;;;4890667;29;20064;-76
2022/05/23 02:59:24;;;;;;;2.67;2.00;;;8.00;99.90;;;;;;4900818;29;20051;-76
2022/05/23 03:04:46;;;;;;;4.05;2.22;;;8.00;99.90;;;;;;4916378;29;20135;-76
2022/05/23 03:07:16;;;;;;;7.28;2.53;;;8.00;99.90;;;;;;4887818;29;20048;-76
2022/05/23 03:09:54;;;;;;;5.55;2.60;;;8.10;99.90;;;;;;4916794;29;20055;-75
2022/05/23 03:12:21;;;;;;;5.63;2.33;;;8.10;99.90;;;;;;4896033;29;20054;-76
2022/05/23 03:14:52;;;;;;;6.80;2.90;;;8.10;99.90;;;;;;4881627;29;20048;-76
2022/05/23 03:17:19;;;;;;;3.88;2.40;;;8.10;99.90;;;;;;4910100;29;20060;-76
2022/05/23 03:19:48;;;;;;;4.47;2.60;;;8.10;99.90;;;;;;4912744;29;20055;-76
2022/05/23 03:27:48;;;;;;;7.53;2.60;;;8.20;99.90;;;;;;4901650;29;20135;-79
2022/05/23 03:30:25;;;;;;;6.65;2.80;;;8.20;99.90;;;;;;4888441;29;20072;-80
2022/05/23 03:32:56;;;;;;;5.63;2.88;;;8.30;99.90;;;;;;4902153;29;20577;-80
2022/05/23 03:35:23;;;;;;;8.70;4.85;;;8.30;99.90;;;;;;4916940;29;20135;-80
2022/05/23 03:37:52;;;;;;;4.82;3.85;;;8.40;99.90;;;;;;4896306;29;20478;-79
2022/05/23 03:40:20;;;;;;;8.18;4.13;;;8.40;99.90;;;;;;4893535;29;20060;-80
2022/05/23 03:42:51;;;;;;;4.75;3.30;;;8.40;99.90;;;;;;4923327;29;20587;-80
2022/05/23 03:45:19;;;;;;;7.03;2.97;;;8.50;99.90;;;;;;4890889;29;20053;-80
2022/05/23 03:47:50;;;;;;;5.78;3.05;;;8.50;99.90;;;;;;4896313;29;20048;-75
2022/05/23 03:50:19;;;;;;;5.18;3.08;;;8.50;99.90;;;;;;4899188;29;20147;-76
2022/05/23 03:52:46;;;;;;;5.47;2.90;;;8.60;99.90;;;;;;4912697;29;20048;-76
2022/05/23 03:55:23;;;;;;;2.97;2.40;;;8.60;99.90;;;;;;4896248;29;20049;-76
2022/05/23 03:58:02;;;;;;;9.77;3.40;;;8.60;99.90;;;;;;4894607;29;20148;-76
2022/05/23 04:00:30;;;;;;;6.85;2.30;;;8.70;99.90;;;;;;4903591;29;20487;-75
2022/05/23 04:02:59;;;;;;;4.82;2.15;;;8.70;99.90;;;;;;4914266;29;20056;-76
2022/05/23 04:05:27;;;;;;;8.60;2.53;;;8.80;99.90;;;;;;4916474;29;20055;-77
2022/05/23 04:08:23;;;;;;;5.55;2.20;;;8.80;99.90;;;;;;4920010;28;20534;-77
2022/05/23 04:10:54;;;;;;;4.38;2.90;;;8.80;99.90;;;;;;4900964;29;20143;-76
2022/05/23 04:13:23;;;;;;;6.72;2.63;;;8.90;99.90;;;;;;4896643;29;20083;-76
2022/05/23 04:15:51;;;;;;;10.45;3.00;;;8.90;99.90;;;;;;4898184;29;20049;-77
2022/05/23 04:18:20;;;;;;;5.53;2.10;;;9.00;99.90;;;;;;4898669;29;20045;-76
2022/05/23 04:20:49;;;;;;;4.15;2.45;;;9.00;98.30;;;;;;4901154;29;20064;-76
2022/05/23 04:23:20;;;;;;;6.70;2.22;;;9.10;97.80;;;;;;4894725;29;20067;-76
2022/05/23 04:25:49;;;;;;;4.95;2.15;;;9.20;97.50;;;;;;4898945;29;20056;-77
2022/05/23 04:28:20;;;;;;;15.43;2.85;;;9.20;95.80;;;;;;4915001;29;20060;-77
2022/05/23 04:30:48;;;;;;;7.40;2.35;;;9.30;94.60;;;;;;4912529;29;20466;-75
2022/05/23 04:36:08;;;;;;;4.28;2.15;;;9.40;93.60;;;;;;4911166;29;20056;-86
2022/05/23 04:38:42;;;;;;;5.20;2.00;;;9.50;92.10;;;;;;4903535;29;20078;-79
2022/05/23 04:41:09;;;;;;;6.18;2.20;;;9.60;91.20;;;;;;4895268;29;20048;-76
2022/05/23 04:43:55;;;;;;;5.22;1.98;;;9.70;90.70;;;;;;4908327;29;20143;-74
2022/05/23 04:46:27;;;;;;;10.32;1.77;;;9.70;89.10;;;;;;4896161;29;20514;-75
2022/05/23 04:51:58;;;;;;;2.72;2.08;;;10.20;84.10;;;;;;4880615;29;20056;-76
2022/05/23 04:54:37;;;;;;;7.13;2.30;;;10.60;80.70;;;;;;4906922;29;20062;-76
2022/05/23 04:57:07;;;;;;;3.63;2.10;;;11.00;78.80;;;;;;4921811;29;20083;-88
2022/05/23 04:59:38;;;;;;;4.57;2.17;;;11.30;76.60;;;;;;4909086;29;20044;-76
2022/05/23 05:02:11;;;;;;;6.07;2.28;;;11.60;74.00;;;;;;4894638;29;20043;-76
2022/05/23 05:04:40;;;;;;;3.33;2.17;;;11.70;73.10;;;;;;4906030;29;20059;-76
2022/05/23 05:07:12;;;;;;;3.53;1.70;;;11.70;71.40;;;;;;4906360;29;20056;-76
2022/05/23 05:09:39;;;;;;;3.42;2.08;;;11.70;70.10;;;;;;4912297;29;20052;-85
2022/05/23 05:12:08;;;;;;;6.03;1.92;;;11.70;69.20;;;;;;4922321;29;20063;-85
2022/05/23 05:14:41;;;;;;;4.57;2.08;;;11.70;68.10;;;;;;4921672;29;20055;-86
2022/05/23 05:17:10;;;;;;;4.30;2.25;;;11.80;67.20;;;;;;4894424;29;20437;-76
2022/05/23 05:19:41;;;;;;;2.40;2.10;;;11.90;66.80;;;;;;4914504;29;20317;-81
2022/05/23 05:22:26;;;;;;;4.75;3.10;;;12.00;65.70;;;;;;4911233;29;20138;-79
2022/05/23 05:25:14;;;;;;;6.97;2.50;;;12.10;65.70;;;;;;4920655;29;20059;-74
2022/05/23 05:28:00;;;;;;;5.53;1.83;;;12.20;66.00;;;;;;4904018;29;20064;-74
2022/05/23 05:30:30;;;;;;;9.23;2.90;;;12.40;65.00;;;;;;4908171;29;20045;-75
2022/05/23 05:33:00;;;;;;;9.05;2.33;;;12.80;64.70;;;;;;4909633;29;20040;-75
2022/05/23 05:35:34;;;;;;;4.47;1.90;;;13.30;64.30;;;;;;4911353;29;20081;-79
2022/05/23 05:38:06;;;;;;;4.55;2.78;;;13.80;62.40;;;;;;4902372;29;20577;-78
2022/05/23 05:40:36;;;;;;;3.20;2.00;;;14.60;61.20;;;;;;4898760;29;20072;-78
2022/05/23 05:43:07;;;;;;;4.55;1.75;;;15.20;58.20;;;;;;4894680;29;20044;-77
2022/05/23 05:45:39;;;;;;;3.28;2.08;;;15.80;56.70;;;;;;4896538;29;20052;-77
2022/05/23 05:48:20;;;;;;;5.35;2.17;;;16.20;55.20;;;;;;4878883;29;20076;-77
2022/05/23 05:50:53;;;;;;;19.17;2.38;;;16.70;54.70;;;;;;4896129;29;20053;-81
2022/05/23 05:53:26;;;;;;;6.30;2.28;;;17.20;53.60;;;;;;4893573;29;20048;-79
2022/05/23 05:55:59;;;;;;;5.15;2.33;;;17.60;52.50;;;;;;4885505;29;20139;-81
2022/05/23 05:58:27;;;;;;;5.22;1.75;;;17.80;51.20;;;;;;4903222;29;20509;-82
2022/05/23 06:00:59;;;;;;;3.83;1.98;;;17.90;51.20;;;;;;4892483;29;20588;-78
2022/05/23 06:03:31;;;;;;;3.88;2.17;;;18.20;50.50;;;;;;4910489;29;20068;-78
2022/05/23 06:12:01;;;;;;;4.45;2.00;;;19.90;48.00;;;;;;4912420;29;20048;-78
2022/05/23 06:14:31;;;;;;;4.05;2.20;;;20.50;47.00;;;;;;4914263;29;20058;-79
2022/05/23 06:17:06;;;;;;;3.47;2.20;;;20.80;46.30;;;;;;4897596;29;20147;-79
2022/05/23 06:19:43;;;;;;;4.97;2.33;;;21.00;45.70;;;;;;4913672;29;20071;-78
2022/05/23 06:22:21;;;;;;;4.25;1.85;;;21.20;44.30;;;;;;4896609;29;20056;-78
2022/05/23 06:25:12;;;;;;;4.63;1.58;;;21.20;44.30;;;;;;4912785;29;20130;-77
2022/05/23 06:27:40;;;;;;;4.30;2.20;;;21.20;44.10;;;;;;4892985;29;20051;-77
2022/05/23 06:30:14;;;;;;;3.53;1.90;;;21.40;43.90;;;;;;4893854;29;20064;-78
2022/05/23 06:32:51;;;;;;;3.33;2.10;;;21.50;44.10;;;;;;4878266;29;20113;-77
2022/05/23 06:35:26;;;;;;;2.42;2.10;;;21.00;44.80;;;;;;4899598;29;20048;-78
2022/05/23 06:37:58;;;;;;;4.15;2.50;;;20.40;45.70;;;;;;4896305;29;20052;-78
2022/05/23 06:40:34;;;;;;;2.33;1.77;;;20.00;47.20;;;;;;4894764;29;20109;-78
2022/05/23 06:43:20;;;;;;;3.28;2.00;;;20.30;48.00;;;;;;4895711;29;20072;-77
2022/05/23 06:45:59;;;;;;;3.50;1.50;;;20.40;47.10;;;;;;4903792;29;20055;-78
2022/05/23 06:48:50;;;;;;;2.55;1.50;;;20.70;46.30;;;;;;4913261;29;20055;-78
2022/05/23 06:51:26;;;;;;;3.97;2.35;;;20.70;45.90;;;;;;4913266;29;20048;-77
2022/05/23 06:54:00;;;;;;;2.38;1.80;;;20.90;47.40;;;;;;4894344;29;20070;-76
2022/05/23 06:56:42;;;;;;;2.55;1.95;;;21.20;46.80;;;;;;4879079;29;20067;-79
2022/05/23 06:59:11;;;;;;;15.40;5.78;;;21.20;46.70;;;;;;4893050;29;20056;-77
2022/05/23 07:01:46;;;;;;;4.90;1.75;;;20.90;46.30;;;;;;4894391;29;20460;-79
2022/05/23 07:12:57;;;;;;;4.60;2.22;;;20.10;49.50;;;;;;4900372;29;20059;-80
2022/05/23 07:15:27;;;;;;;12.55;9.65;;;20.60;49.00;;;;;;4898083;29;20516;-79
2022/05/23 07:17:57;;;;;;;4.22;2.20;;;21.30;48.60;;;;;;4896312;29;20116;-79
2022/05/23 07:20:57;;;;;;;1.88;1.52;;;21.80;47.90;;;;;;4933929;28;20413;-76
2022/05/23 07:23:30;;;;;;;;;;;22.20;47.20;;;;;;4924940;29;20569;-76
2022/05/23 07:26:19;;;;;;;7.05;1.90;;;22.40;46.70;;;;;;4927065;29;19962;-77
2022/05/23 07:28:54;;;;;;;4.45;1.90;;;23.00;47.50;;;;;;4926434;29;20086;-78
2022/05/23 07:31:26;;;;;;;2.15;1.70;;;23.60;45.20;;;;;;4919507;29;20055;-76
2022/05/23 07:33:54;;;;;;;3.42;1.67;;;23.90;44.00;;;;;;4918772;29;20465;-77
2022/05/23 07:36:22;;;;;;;5.07;1.50;;;23.50;45.50;;;;;;4902786;29;20052;-77
2022/05/23 07:38:52;;;;;;;4.32;1.70;;;22.80;45.30;;;;;;4882991;29;20060;-78
2022/05/23 07:41:40;;;;;;;3.53;1.30;;;22.60;46.50;;;;;;4902139;29;20056;-77
2022/05/23 07:44:09;;;;;;;3.45;1.27;;;23.50;46.90;;;;;;4880774;29;20063;-77
2022/05/23 07:46:37;;;;;;;4.22;1.50;;;24.00;44.90;;;;;;4905253;29;20040;-79
2022/05/23 07:49:06;;;;;;;2.00;1.48;;;24.00;45.00;;;;;;4910682;29;20052;-79
2022/05/23 07:51:36;;;;;;;7.40;1.75;;;23.60;45.10;;;;;;4897097;29;20048;-78
2022/05/23 08:02:33;;;;;;;5.82;1.58;;;21.20;49.00;;;;;;4908551;29;20536;-78
2022/05/23 08:05:06;;;;;;;4.53;1.88;;;21.20;49.50;;;;;;4915635;29;20075;-80
2022/05/23 08:07:33;;;;;;;5.53;1.50;;;21.20;48.90;;;;;;4895340;29;20107;-78
2022/05/23 08:10:03;;;;;;;5.72;1.60;;;21.20;49.40;;;;;;4917941;29;20060;-78
2022/05/23 08:12:39;;;;;;;4.20;1.50;;;21.10;49.80;;;;;;4891999;29;20055;-79
2022/05/23 08:15:14;;;;;;;3.55;1.98;;;20.90;49.90;;;;;;4922265;29;20103;-78
2022/05/23 08:17:44;;;;;;;3.90;1.70;;;20.80;49.60;;;;;;4921513;29;20556;-77
2022/05/23 08:20:27;;;;;;;10.30;2.53;;;20.70;50.30;;;;;;4903300;29;20147;-76
2022/05/23 08:22:59;;;;;;;4.18;1.60;;;20.50;51.50;;;;;;4908176;29;20275;-77
2022/05/23 08:25:41;;;;;;;4.68;1.80;;;20.30;50.70;;;;;;4911786;29;20070;-79
2022/05/23 08:28:10;;;;;;;5.15;1.80;;;19.80;51.70;;;;;;4913330;29;20043;-76
2022/05/23 08:30:43;;;;;;;5.10;2.05;;;19.50;51.70;;;;;;4909278;29;20413;-78
2022/05/23 08:33:23;;;;;;;7.95;2.60;;;19.50;52.80;;;;;;4895387;29;20520;-78
2022/05/23 08:35:53;;;;;;;4.10;2.05;;;19.90;53.10;;;;;;4903605;29;20109;-79
2022/05/23 08:38:24;;;;;;;2.53;1.77;;;21.60;51.90;;;;;;4924879;29;20107;-79
2022/05/23 08:41:13;;;;;;;2.17;1.70;;;22.10;49.50;;;;;;4903573;29;20123;-78
2022/05/23 08:44:04;;;;;;;8.63;2.00;;;21.80;49.00;;;;;;4905711;29;20143;-74
2022/05/23 08:46:40;;;;;;;4.15;1.80;;;21.40;49.30;;;;;;4919039;29;20063;-81
2022/05/23 08:49:30;;;;;;;7.40;1.48;;;22.00;50.50;;;;;;4921619;29;20154;-82
2022/05/23 08:52:11;;;;;;;7.22;1.77;;;23.40;49.00;;;;;;4915256;29;20072;-80
2022/05/23 08:54:52;;;;;;;12.18;2.33;;;25.10;45.50;;;;;;4906765;29;20079;-80
2022/05/23 08:57:44;;;;;;;3.53;1.77;;;26.20;43.20;;;;;;4909940;29;20051;-85
2022/05/23 09:00:18;;;;;;;2.50;1.48;;;27.00;43.60;;;;;;4908333;29;20421;-79
2022/05/23 09:02:52;;;;;;;3.05;2.15;;;27.10;43.00;;;;;;4890632;29;20056;-80
2022/05/23 09:05:36;;;;;;;17.95;2.20;;;27.40;42.80;;;;;;4897606;29;20089;-80
2022/05/23 09:08:06;;;;;;;22.20;2.40;;;28.20;42.30;;;;;;4904204;29;20063;-79
2022/05/23 09:10:41;;;;;;;8.10;2.20;;;29.00;41.30;;;;;;4912698;29;20075;-81
2022/05/23 09:13:10;;;;;;;6.28;1.77;;;29.60;40.30;;;;;;4911191;29;20425;-82
2022/05/23 09:15:39;;;;;;;5.15;2.25;;;30.20;40.60;;;;;;4912626;29;20135;-77
2022/05/23 09:18:17;;;;;;;2.53;2.00;;;30.60;39.90;;;;;;4910586;29;20595;-77
2022/05/23 09:20:49;;;;;;;2.15;1.50;;;31.00;39.10;;;;;;4913289;29;20048;-76
2022/05/23 09:23:26;;;;;;;12.02;1.92;;;31.20;38.70;;;;;;4894765;29;20044;-79
2022/05/23 09:25:55;;;;;;;2.80;1.60;;;30.80;38.50;;;;;;4914078;29;20517;-79
2022/05/23 09:28:29;;;;;;;15.15;1.70;;;30.90;38.50;;;;;;4911567;29;20054;-79
2022/05/23 09:31:01;;;;;;;11.07;1.60;;;31.10;38.20;;;;;;4913150;29;20076;-79
2022/05/23 09:33:31;;;;;;;4.90;1.67;;;31.30;38.70;;;;;;4907748;29;20048;-78
2022/05/23 09:36:11;;;;;;;3.92;1.73;;;31.30;38.20;;;;;;4912488;29;20059;-81
2022/05/23 09:38:47;;;;;;;7.60;1.80;;;31.20;39.10;;;;;;4913304;29;20155;-79
2022/05/23 09:47:49;;;;;;;5.18;1.70;;;31.00;37.90;;;;;;4946287;28;20070;-81
2022/05/23 09:50:43;;;;;;;8.25;2.00;;;30.70;37.40;;;;;;4945110;28;20107;-79
2022/05/23 09:53:52;;;;;;;4.47;2.15;;;30.10;37.40;;;;;;4928203;28;20740;-78
2022/05/23 09:56:29;;;;;;;7.85;1.95;;;29.90;39.40;;;;;;4906861;29;20390;-78
2022/05/23 09:59:01;;;;;;;3.72;2.30;;;30.20;39.20;;;;;;4910535;29;20535;-78
2022/05/23 10:01:38;;;;;;;2.90;1.73;;;30.50;38.70;;;;;;4909882;29;20103;-78
2022/05/23 10:04:16;;;;;;;64.40;6.75;;;30.90;38.20;;;;;;4911819;29;20048;-78
2022/05/23 10:06:48;;;;;;;9.32;2.20;;;31.30;37.40;;;;;;4911513;29;20063;-77
2022/05/23 10:09:28;;;;;;;17.52;3.20;;;31.50;37.00;;;;;;4909223;29;20079;-78
2022/05/23 10:12:22;;;;;;;3.92;1.60;;;31.50;37.40;;;;;;4907089;29;20589;-79
2022/05/23 10:14:52;;;;;;;2.17;1.80;;;31.20;37.00;;;;;;4909030;29;20429;-80
2022/05/23 10:17:27;;;;;;;3.10;2.10;;;31.50;38.00;;;;;;4908797;29;20536;-78
2022/05/23 10:20:19;;;;;;;5.95;1.90;;;31.50;36.30;;;;;;4910110;29;20070;-79
2022/05/23 10:22:56;;;;;;;6.85;2.25;;;29.90;37.50;;;;;;4908295;29;20060;-76
2022/05/23 10:25:24;;;;;;;5.05;1.90;;;28.60;39.30;;;;;;4905882;29;20135;-78
2022/05/23 10:28:00;;;;;;;3.60;1.77;;;27.60;40.10;;;;;;4910010;29;20073;-77
2022/05/23 10:30:32;;;;;;;3.80;2.08;;;27.50;41.00;;;;;;4905886;29;20063;-78
2022/05/23 10:33:06;;;;;;;5.95;1.90;;;28.40;39.90;;;;;;4909203;29;20048;-78
2022/05/23 10:35:36;;;;;;;;;;;27.90;39.30;;;;;;4909380;29;20135;-78
2022/05/23 10:43:53;;;;;;;10.32;2.28;;;25.90;42.90;;;;;;4911299;29;20052;-77
2022/05/23 10:46:21;;;;;;;3.45;1.77;;;25.00;43.00;;;;;;4907242;29;20048;-77
2022/05/23 10:48:56;;;;;;;2.15;1.70;;;24.30;44.90;;;;;;4911000;29;20421;-77
2022/05/23 10:51:40;;;;;;;3.30;2.58;;;24.70;44.60;;;;;;4914636;29;20044;-78
2022/05/23 10:54:21;;;;;;;3.65;1.98;;;24.90;43.70;;;;;;4909442;29;20709;-78
2022/05/23 10:57:02;;;;;;;3.00;1.70;;;24.30;44.00;;;;;;4909396;29;20513;-77
2022/05/23 10:59:41;;;;;;;7.70;2.33;;;23.60;45.20;;;;;;4913861;29;20131;-79
2022/05/23 11:02:23;;;;;;;13.95;2.22;;;23.10;47.20;;;;;;4912154;29;20150;-78
2022/05/23 11:05:00;;;;;;;2.83;2.03;;;22.70;48.70;;;;;;4912710;29;20584;-76
2022/05/23 11:08:00;;;;;;;5.72;2.30;;;22.50;47.70;;;;;;4911990;29;20048;-75
2022/05/23 11:10:34;;;;;;;5.80;2.33;;;22.40;48.40;;;;;;4893918;29;20051;-75
2022/05/23 11:13:12;;;;;;;3.90;1.70;;;22.40;47.90;;;;;;4891564;29;20429;-75
2022/05/23 11:15:54;;;;;;;3.17;2.83;;;22.20;48.70;;;;;;4912896;29;20056;-75
2022/05/23 11:18:35;;;;;;;8.02;2.15;;;22.10;48.40;;;;;;4909386;29;20055;-80
2022/05/23 11:21:08;;;;;;;3.67;2.22;;;21.90;49.40;;;;;;4914306;29;20067;-82
2022/05/23 11:23:45;;;;;;;2.15;1.85;;;21.80;50.10;;;;;;4914849;29;20111;-83
2022/05/23 11:26:18;;;;;;;2.75;1.80;;;21.70;49.80;;;;;;4910510;29;20048;-80
2022/05/23 11:34:45;;;;;;;2.30;2.10;;;21.70;50.30;;;;;;4893733;29;20056;-80
2022/05/23 11:41:06;;;;;;;3.05;1.77;;;22.70;47.90;;;;;;4912831;29;20094;-80
2022/05/23 11:43:35;;;;;;;2.30;2.20;;;23.80;46.00;;;;;;4908141;29;20099;-85
2022/05/23 11:46:08;;;;;;;2.55;2.13;;;25.10;45.00;;;;;;4891935;29;20155;-85
2022/05/23 11:48:46;;;;;;;4.90;1.65;;;25.20;44.80;;;;;;4901057;29;20040;-83
2022/05/23 11:51:30;;;;;;;8.00;2.63;;;25.00;45.80;;;;;;4913125;29;20049;-84
2022/05/23 11:54:06;;;;;;;3.90;1.95;;;25.40;46.20;;;;;;4912644;29;20055;-84
2022/05/23 11:56:42;;;;;;;5.88;1.67;;;26.30;45.30;;;;;;4911131;29;20568;-82
2022/05/23 11:59:13;;;;;;;3.92;1.70;;;26.20;44.60;;;;;;4910958;29;20055;-77
2022/05/23 12:01:40;;;;;;;2.08;1.60;;;25.70;44.30;;;;;;4911927;29;20083;-77
2022/05/23 12:04:28;;;;;;;2.72;1.23;;;26.10;45.30;;;;;;4911556;29;20071;-75
2022/05/23 12:06:56;;;;;;;1.70;1.23;;;27.90;44.10;;;;;;4906607;29;20051;-77
2022/05/23 12:09:33;;;;;;;1.65;1.30;;;28.90;40.40;;;;;;4912818;29;20039;-78
2022/05/23 12:12:53;;;;;;;5.40;1.63;;;29.30;40.60;;;;;;4912483;29;20095;-76
2022/05/23 12:15:53;;;;;;;4.32;1.40;;;30.40;41.00;;;;;;4910406;29;20060;-81
2022/05/23 12:18:34;;;;;;;1.25;1.15;;;31.80;38.70;;;;;;4910118;29;20147;-80
2022/05/23 12:21:03;;;;;;;5.28;1.70;;;32.10;37.30;;;;;;4912645;29;20052;-79
2022/05/23 12:23:34;;;;;;;4.65;1.38;;;30.90;37.30;;;;;;4908655;29;20047;-81
2022/05/23 12:26:08;;;;;;;2.00;1.33;;;29.40;38.60;;;;;;4910060;29;20063;-81
2022/05/23 12:28:44;;;;;;;2.05;1.25;;;28.10;41.10;;;;;;4910419;29;20348;-80
2022/05/23 12:31:16;;;;;;;2.42;1.20;;;26.80;42.90;;;;;;4911483;29;20059;-79
2022/05/23 12:34:07;;;;;;;2.50;1.23;;;27.20;42.80;;;;;;4890908;29;20147;-78
2022/05/23 12:36:39;;;;;;;1.92;0.98;;;27.70;41.40;;;;;;4911837;29;20063;-79
2022/05/23 12:39:45;;;;;;;3.85;1.73;;;27.10;41.60;;;;;;4893117;29;20056;-80
2022/05/23 12:42:24;;;;;;;1.58;1.20;;;26.00;42.90;;;;;;4906411;29;20517;-80
2022/05/23 12:45:12;;;;;;;4.00;1.85;;;25.30;44.90;;;;;;4911189;29;20054;-77
2022/05/23 12:48:18;;;;;;;9.48;1.80;;;25.20;45.00;;;;;;4912318;29;20142;-78
2022/05/23 12:50:57;;;;;;;2.25;1.40;;;25.10;44.30;;;;;;4909028;29;20139;-81
2022/05/23 12:53:40;;;;;;;5.88;2.25;;;24.40;44.90;;;;;;4912531;29;20089;-81
2022/05/23 12:56:28;;;;;;;1.35;1.15;;;23.60;46.60;;;;;;4912472;29;20560;-77
2022/05/23 12:59:23;;;;;;;1.92;1.83;;;23.00;48.40;;;;;;4912646;29;20067;-76
2022/05/23 13:01:59;;;;;;;4.75;1.83;;;22.40;49.10;;;;;;4906225;29;20056;-77
2022/05/23 13:04:35;;;;;;;4.07;1.50;;;22.00;49.70;;;;;;4909966;29;20056;-79
2022/05/23 13:07:07;;;;;;;2.55;1.60;;;21.70;51.20;;;;;;4909417;29;20056;-76
2022/05/23 13:09:38;;;;;;;;;;;21.40;52.10;;;;;;4906802;29;20055;-79
2022/05/23 13:12:09;;;;;;;5.25;1.65;;;21.10;51.20;;;;;;4910422;29;19926;-79
2022/05/23 13:14:51;;;;;;;6.78;2.00;;;20.80;51.60;;;;;;4906686;29;20248;-79
2022/05/23 13:17:39;;;;;;;10.30;2.33;;;21.40;52.90;;;;;;4909532;29;20044;-82
2022/05/23 13:23:04;;;;;;;4.53;2.85;;;22.20;51.00;;;;;;4908898;29;20040;-77
2022/05/23 13:25:34;;;;;;;6.65;2.63;;;22.10;52.30;;;;;;4909247;29;20048;-79
2022/05/23 13:28:01;;;;;;;4.25;2.90;;;22.50;50.80;;;;;;4910799;29;20453;-77
2022/05/23 13:30:32;;;;;;;5.50;2.83;;;22.20;51.20;;;;;;4909391;29;20047;-78
2022/05/23 13:33:02;;;;;;;5.53;2.37;;;22.50;51.60;;;;;;4909297;29;20147;-76
2022/05/23 13:35:32;;;;;;;5.15;2.85;;;22.90;51.10;;;;;;4910832;29;20052;-75
2022/05/23 13:38:14;;;;;;;11.20;2.90;;;23.70;49.70;;;;;;4906046;29;20299;-75
2022/05/23 13:40:48;;;;;;;15.07;2.67;;;23.30;50.10;;;;;;4912151;29;20059;-75
2022/05/23 13:43:19;;;;;;;7.43;3.22;;;22.60;50.70;;;;;;4908914;29;20107;-76
2022/05/23 13:45:49;;;;;;;6.70;2.95;;;22.10;52.70;;;;;;4910170;29;20067;-75
2022/05/23 13:48:24;;;;;;;9.85;3.20;;;22.90;51.80;;;;;;4909521;29;20568;-76
2022/05/23 13:51:02;;;;;;;8.10;3.42;;;22.80;51.50;;;;;;4909556;29;20048;-76
2022/05/23 13:53:33;;;;;;;10.82;3.25;;;22.40;52.70;;;;;;4892247;29;20213;-76
2022/05/23 13:56:03;;;;;;;11.25;3.00;;;22.40;53.20;;;;;;4909627;29;20047;-75
2022/05/23 13:58:33;;;;;;;5.78;2.60;;;22.50;52.80;;;;;;4908799;29;20115;-77
2022/05/23 14:01:06;;;;;;;5.13;3.05;;;22.50;53.40;;;;;;4910130;29;20072;-78
2022/05/23 14:03:36;;;;;;;12.10;2.40;;;23.10;52.80;;;;;;4908692;29;20512;-81
2022/05/23 14:06:08;;;;;;;6.70;3.35;;;24.10;50.30;;;;;;4905848;29;20051;-80
2022/05/23 14:08:40;;;;;;;6.27;2.97;;;23.80;50.40;;;;;;4907741;29;20146;-76
2022/05/23 14:11:18;;;;;;;7.72;2.80;;;23.90;51.50;;;;;;4909238;29;20685;-77
2022/05/23 14:13:46;;;;;;;5.00;1.65;;;25.00;49.90;;;;;;4910119;29;20502;-78
2022/05/23 14:16:17;;;;;;;13.73;2.28;;;24.70;47.00;;;;;;4908760;29;20048;-77
2022/05/23 14:19:01;;;;;;;8.70;1.98;;;24.30;47.50;;;;;;4909148;29;20063;-77
2022/05/23 14:21:38;;;;;;;3.67;1.92;;;23.80;47.10;;;;;;4907779;29;20139;-79
2022/05/23 14:24:16;;;;;;;2.13;1.90;;;23.20;48.30;;;;;;4910647;29;20131;-78
2022/05/23 14:26:43;;;;;;;5.68;2.03;;;22.40;49.10;;;;;;4910367;29;20520;-79
2022/05/23 14:29:15;;;;;;;3.35;1.75;;;22.00;50.50;;;;;;4910088;29;20047;-80
2022/05/23 14:31:49;;;;;;;5.95;2.08;;;21.70;51.30;;;;;;4911964;29;20056;-80
2022/05/23 14:34:24;;;;;;;2.67;2.05;;;21.40;52.00;;;;;;4906508;29;20040;-78
2022/05/23 14:36:58;;;;;;;6.25;3.40;;;21.20;51.90;;;;;;4908976;29;20367;-78
2022/05/23 14:39:29;;;;;;;5.18;2.20;;;21.10;52.60;;;;;;4910902;29;20556;-78